Terminal Aerodrome Forecast
Issued by NWS

Home | Current Version | Previous Version | Text Only | Print | Product List | Glossary On
Versions: 1 2 3 4 5 6 7 8 9 10 11 12 13 14 15 16 17
000
FTUS41 KPHI 220500
TAFMIV
TAF
KMIV 220539Z 2206/2306 01007KT 6SM -RA SCT025 OVC040
     FM221100 01007KT 4SM -RA BR BKN008
     FM221500 03010G18KT 4SM RA BR BKN012
     FM221900 36013G24KT 6SM -RA BR OVC025
     FM230400 32012KT P6SM OVC025=

USA.gov is the U.S. government's official web portal to all federal, state and local government web resources and services.